Strona główna
METAR-TAF:

METAR-TAF

Lotnisko :

Port lotniczy Resistencia

Resistencia, Argentyna

Szerokość geograficzna: 27-27S, Długość geograficzna: 059-03W, wysokość: 53 m

Aktualna obserwacja pogody

Raport powstał 16 minut temu, godzina 02:00 UTC
Wiatr 4 kt od północny wschód
Temperatura 18°C
Wilgotność 73%
Ciśnienie 1009 hPa
Widzialność 10 km lub więcej
Brak chmur poniżej 1500 m i brak chmur cumulonimbus

METAR: SARE 160200Z 05004KT CAVOK 18/13 Q1009

czas: 23:16 (02:16 UTC)

Prognoza

Raport powstał 3 godziny i 16 minut temu, godzina 23:00 UTC
Prognoza ważna od 16 godzina 00 UTC do 16 godzina 24 UTC
Wiatr 5 kt od wschodnio-południowy wschód
Widzialność 10 km lub więcej
Brak chmur poniżej 1500 m i brak chmur cumulonimbus
Stopniowe zmiany
od 16 godzina 12 UTC do 16 godzina 13 UTC
Wiatr 5 kt od północno-północny wschód
Widzialność 10 km lub więcej
Brak chmur poniżej 1500 m i brak chmur cumulonimbus

TAF: SARE 152300Z 1600/1624 11005KT CAVOK TX30/1618Z TN16/1609Z BECMG 1612/1613 02005KT CAVOK

Obserwacja i prognoza pogody dla ponad 4000 lotnisk (raport METAR i TAF).

Dostępne stacje oznaczono żółtymi i czerwonymi punktami na mapie.

Najedź kursorem aby zobaczyć nazwę stacji.

Kliknij aby zobaczyć obserwacje i prognozy pogody.

Aby zmienić mapę: kliknij na zielony przycisk z czarnym krzyżykiem, aby powiększyć; na zielony przycisk z myślnikiem, aby pomniejszyć; na zielone strzałki, aby przejść do map sąsiednich.


METAR-TAF: